Time;durP1;ratioP1;P1;durP2;ratioP2;P2;SDS_P1;SDS_P2;PMS_P1;PMS_P2;Temp;Humidity;BMP_temperature;BMP_pressure;BME280_temperature;BME280_humidity;BME280_pressure;Samples;Min_cycle;Max_cycle;Signal;HPM_P1;HPM_P2
2022/08/30 00:01:31;;;;;;;7.05;1.92;;;;;;;-144.43;100.00;67396.00;5093054;28;20537;-62
2022/08/30 00:04:00;;;;;;;6.50;1.83;;;;;;;-144.43;100.00;67396.00;5093286;28;20024;-59
2022/08/30 00:06:28;;;;;;;7.72;2.13;;;;;;;-144.43;100.00;67396.00;5093158;28;20036;-62
2022/08/30 00:08:56;;;;;;;4.10;2.00;;;;;;;-144.43;100.00;67396.00;5090757;28;20032;-62
2022/08/30 00:11:26;;;;;;;5.20;2.10;;;;;;;-144.43;100.00;67396.00;5093435;28;20056;-61
2022/08/30 00:13:55;;;;;;;3.58;1.73;;;;;;;-144.43;100.00;67396.00;5093651;28;20032;-61
2022/08/30 00:16:23;;;;;;;3.03;1.88;;;;;;;-144.43;100.00;67396.00;5092940;28;20019;-61
2022/08/30 00:18:50;;;;;;;3.97;1.63;;;;;;;-144.43;100.00;67396.00;5090474;28;20060;-61
2022/08/30 00:21:17;;;;;;;3.53;1.65;;;;;;;-144.43;100.00;67396.00;5092118;28;20043;-61
2022/08/30 00:23:44;;;;;;;11.68;2.05;;;;;;;-144.43;100.00;67396.00;5092467;28;20024;-62
2022/08/30 00:26:11;;;;;;;8.23;1.75;;;;;;;-144.43;100.00;67396.00;5084478;28;20040;-59
2022/08/30 00:28:39;;;;;;;5.53;1.70;;;;;;;-144.43;100.00;67396.00;5090820;28;20462;-62
2022/08/30 00:31:07;;;;;;;4.57;1.60;;;;;;;-144.43;100.00;67396.00;5079451;28;20034;-59
2022/08/30 00:33:34;;;;;;;7.30;1.90;;;;;;;-144.43;100.00;67396.00;5086233;28;20056;-60
2022/08/30 00:36:01;;;;;;;15.43;2.00;;;;;;;-144.43;100.00;67396.00;5086642;28;20032;-62
2022/08/30 00:38:28;;;;;;;13.55;1.80;;;;;;;-144.43;100.00;67396.00;5088231;28;20070;-60
2022/08/30 00:40:55;;;;;;;18.48;2.38;;;;;;;-144.43;100.00;67396.00;5085509;28;20039;-63
2022/08/30 00:43:30;;;;;;;3.95;1.23;;;;;;;-144.43;100.00;67396.00;5091325;28;20118;-61
2022/08/30 00:45:57;;;;;;;8.70;1.40;;;;;;;-144.43;100.00;67396.00;5086324;28;20032;-59
2022/08/30 00:48:24;;;;;;;5.90;1.38;;;;;;;-144.43;100.00;67396.00;5084180;28;20024;-60
2022/08/30 00:50:57;;;;;;;6.53;1.48;;;;;;;-144.43;100.00;67396.00;5086000;28;20449;-60
2022/08/30 00:53:30;;;;;;;18.05;2.38;;;;;;;-144.43;100.00;67396.00;5084773;28;20506;-59
2022/08/30 00:55:59;;;;;;;10.68;1.88;;;;;;;-144.43;100.00;67396.00;5083371;28;20052;-61
2022/08/30 00:58:35;;;;;;;8.75;1.70;;;;;;;-144.43;100.00;67396.00;5092442;28;20020;-61
2022/08/30 01:01:07;;;;;;;6.80;1.38;;;;;;;-144.43;100.00;67396.00;5082001;28;20028;-61
2022/08/30 01:03:35;;;;;;;4.88;1.40;;;;;;;-144.43;100.00;67396.00;5082489;28;20035;-59
2022/08/30 01:06:03;;;;;;;4.70;1.40;;;;;;;-144.43;100.00;67396.00;5084073;28;20051;-62
2022/08/30 01:08:31;;;;;;;5.80;1.25;;;;;;;-144.43;100.00;67396.00;5087782;28;20036;-61
2022/08/30 01:10:58;;;;;;;8.77;1.48;;;;;;;-144.43;100.00;67396.00;5086450;28;20085;-60
2022/08/30 01:13:29;;;;;;;11.02;1.50;;;;;;;-144.43;100.00;67396.00;5090383;28;20036;-63
2022/08/30 01:15:58;;;;;;;5.93;1.38;;;;;;;-144.43;100.00;67396.00;5074120;28;20024;-59
2022/08/30 01:18:26;;;;;;;8.10;1.30;;;;;;;-144.43;100.00;67396.00;5081230;28;20086;-61
2022/08/30 01:21:06;;;;;;;7.82;1.77;;;;;;;-144.43;100.00;67396.00;5080532;28;20035;-59
2022/08/30 01:23:35;;;;;;;7.80;1.30;;;;;;;-144.43;100.00;67396.00;5073186;28;20207;-58
2022/08/30 01:26:04;;;;;;;13.10;1.73;;;;;;;-144.43;100.00;67396.00;5074681;28;20043;-60
2022/08/30 01:28:32;;;;;;;8.73;1.40;;;;;;;-144.43;100.00;67396.00;5072350;28;20074;-59
2022/08/30 01:31:00;;;;;;;12.23;2.28;;;;;;;-144.43;100.00;67396.00;5076169;28;20024;-61
2022/08/30 01:33:27;;;;;;;5.28;1.27;;;;;;;-144.43;100.00;67396.00;5073267;28;20089;-62
2022/08/30 01:36:03;;;;;;;8.55;1.48;;;;;;;-144.43;100.00;67396.00;5072202;28;20035;-60
2022/08/30 01:38:36;;;;;;;7.68;1.33;;;;;;;-144.43;100.00;67396.00;5082415;28;20075;-59
2022/08/30 01:41:30;;;;;;;7.18;1.30;;;;;;;-144.43;100.00;67396.00;5084480;28;20043;-61
2022/08/30 01:44:00;;;;;;;9.48;1.88;;;;;;;-144.43;100.00;67396.00;5085258;28;20028;-60
2022/08/30 01:46:34;;;;;;;6.57;1.48;;;;;;;-144.43;100.00;67396.00;5083432;28;20078;-60
2022/08/30 01:49:04;;;;;;;11.80;1.63;;;;;;;-144.43;100.00;67396.00;5085465;28;20070;-60
2022/08/30 01:51:31;;;;;;;6.85;1.40;;;;;;;-144.43;100.00;67396.00;5084601;28;20039;-61
2022/08/30 01:53:59;;;;;;;7.13;1.55;;;;;;;-144.43;100.00;67396.00;5088892;28;20024;-61
2022/08/30 01:56:27;;;;;;;5.88;1.48;;;;;;;-144.43;100.00;67396.00;5086789;28;20094;-61
2022/08/30 01:58:54;;;;;;;4.68;1.27;;;;;;;-144.43;100.00;67396.00;5084544;28;20075;-61
2022/08/30 02:01:25;;;;;;;14.00;1.60;;;;;;;-144.43;100.00;67396.00;5079784;28;20351;-63
2022/08/30 02:03:54;;;;;;;8.82;1.50;;;;;;;-144.43;100.00;67396.00;5087642;28;20241;-60
2022/08/30 02:06:22;;;;;;;5.28;1.33;;;;;;;-144.43;100.00;67396.00;5081109;28;20123;-64
2022/08/30 02:08:49;;;;;;;7.20;1.48;;;;;;;-144.43;100.00;67396.00;5080183;28;20028;-58
2022/08/30 02:11:16;;;;;;;23.45;1.80;;;;;;;-144.43;100.00;67396.00;5079128;28;20037;-60
2022/08/30 02:13:45;;;;;;;8.25;1.58;;;;;;;-144.43;100.00;67396.00;5078082;28;20367;-58
2022/08/30 02:16:15;;;;;;;9.48;1.40;;;;;;;-144.43;100.00;67396.00;5077741;28;20036;-60
2022/08/30 02:18:42;;;;;;;15.02;1.95;;;;;;;-144.43;100.00;67396.00;5079198;28;20470;-58
2022/08/30 02:21:09;;;;;;;12.80;1.80;;;;;;;-144.43;100.00;67396.00;5080259;28;20041;-58
2022/08/30 02:23:36;;;;;;;11.95;2.00;;;;;;;-144.43;100.00;67396.00;5082080;28;20032;-60
2022/08/30 02:26:04;;;;;;;5.90;1.50;;;;;;;-144.43;100.00;67396.00;5076109;28;20027;-59
2022/08/30 02:28:31;;;;;;;9.75;1.75;;;;;;;-144.43;100.00;67396.00;5082009;28;20024;-60
2022/08/30 02:30:57;;;;;;;15.25;2.13;;;;;;;-144.43;100.00;67396.00;5077427;28;20033;-60
2022/08/30 02:33:24;;;;;;;13.85;2.40;;;;;;;-144.43;100.00;67396.00;5081431;28;20047;-60
2022/08/30 02:35:51;;;;;;;14.45;2.30;;;;;;;-144.43;100.00;67396.00;5080282;28;20032;-59
2022/08/30 02:38:18;;;;;;;10.00;2.15;;;;;;;-144.43;100.00;67396.00;5079825;28;20024;-60
2022/08/30 02:40:44;;;;;;;12.98;2.38;;;;;;;-144.43;100.00;67396.00;5081282;28;20051;-63
2022/08/30 02:43:11;;;;;;;14.35;2.60;;;;;;;-144.43;100.00;67396.00;5080133;28;20082;-60
2022/08/30 02:45:38;;;;;;;13.00;2.40;;;;;;;-144.43;100.00;67396.00;5079207;28;20089;-60
2022/08/30 02:48:05;;;;;;;16.33;2.45;;;;;;;-144.43;100.00;67396.00;5075126;28;20423;-61
2022/08/30 02:50:31;;;;;;;15.00;2.28;;;;;;;-144.43;100.00;67396.00;5082804;28;20031;-59
2022/08/30 02:52:58;;;;;;;14.52;2.47;;;;;;;-144.43;100.00;67396.00;5076330;28;20044;-60
2022/08/30 02:55:25;;;;;;;14.75;2.72;;;;;;;-144.43;100.00;67396.00;5074881;28;20123;-61
2022/08/30 02:57:52;;;;;;;12.35;2.50;;;;;;;-144.43;100.00;67396.00;5074375;28;20378;-63
2022/08/30 03:00:20;;;;;;;11.88;2.50;;;;;;;-144.43;100.00;67396.00;5075271;28;20062;-60
2022/08/30 03:02:49;;;;;;;13.55;2.70;;;;;;;-144.43;100.00;67396.00;5075655;28;20112;-63
2022/08/30 03:05:17;;;;;;;10.18;2.58;;;;;;;-144.43;100.00;67396.00;5074048;28;20071;-57
2022/08/30 03:07:46;;;;;;;10.50;2.00;;;;;;;-144.43;100.00;67396.00;5075750;28;20036;-57
2022/08/30 03:10:13;;;;;;;17.40;2.88;;;;;;;-144.43;100.00;67396.00;5083422;28;20067;-57
2022/08/30 03:12:41;;;;;;;9.60;1.83;;;;;;;-144.43;100.00;67396.00;5082432;28;20394;-58
2022/08/30 03:15:11;;;;;;;10.82;1.90;;;;;;;-144.43;100.00;67396.00;5073519;28;20021;-57
2022/08/30 03:17:39;;;;;;;9.15;1.90;;;;;;;-144.43;100.00;67396.00;5075978;28;20048;-59
2022/08/30 03:20:07;;;;;;;11.07;2.08;;;;;;;-144.43;100.00;67396.00;5086593;28;20028;-57
2022/08/30 03:22:35;;;;;;;10.48;1.77;;;;;;;-144.43;100.00;67396.00;5077594;28;20482;-58
2022/08/30 03:25:02;;;;;;;6.68;1.90;;;;;;;-144.43;100.00;67396.00;5073825;28;20024;-57
2022/08/30 03:27:29;;;;;;;11.05;2.10;;;;;;;-144.43;100.00;67396.00;5079513;28;20037;-57
2022/08/30 03:29:56;;;;;;;14.32;2.33;;;;;;;-144.43;100.00;67396.00;5084667;28;20073;-61
2022/08/30 03:32:23;;;;;;;10.50;2.50;;;;;;;-144.43;100.00;67396.00;5092664;28;20062;-61
2022/08/30 03:34:50;;;;;;;11.05;2.45;;;;;;;-144.43;100.00;67396.00;5092671;28;20138;-58
2022/08/30 03:37:17;;;;;;;10.57;2.47;;;;;;;-144.43;100.00;67396.00;5092930;28;20258;-59
2022/08/30 03:39:44;;;;;;;17.83;2.72;;;;;;;-144.43;100.00;67396.00;5093641;28;20109;-60
2022/08/30 03:42:11;;;;;;;18.27;2.75;;;;;;;-144.43;100.00;67396.00;5092795;28;20074;-63
2022/08/30 03:44:38;;;;;;;12.50;2.65;;;;;;;-144.43;100.00;67396.00;5092541;28;20138;-61
2022/08/30 03:47:05;;;;;;;12.60;2.50;;;;;;;-144.43;100.00;67396.00;5092139;28;20028;-59
2022/08/30 03:49:31;;;;;;;10.65;2.20;;;;;;;-144.43;100.00;67396.00;5093222;28;20052;-62
2022/08/30 03:51:58;;;;;;;8.15;1.92;;;;;;;-144.43;100.00;67396.00;5093134;28;20035;-60
2022/08/30 03:54:25;;;;;;;11.63;2.60;;;;;;;-144.43;100.00;67396.00;5092826;28;20107;-60
2022/08/30 03:56:52;;;;;;;11.23;2.70;;;;;;;-144.43;100.00;67396.00;5092910;28;20028;-59
2022/08/30 03:59:18;;;;;;;11.65;2.10;;;;;;;-144.43;100.00;67396.00;5091674;28;20035;-58
2022/08/30 04:01:47;;;;;;;8.98;1.77;;;;;;;-144.43;100.00;67396.00;5092175;28;20043;-58
2022/08/30 04:04:14;;;;;;;7.88;1.77;;;;;;;-144.43;100.00;67396.00;5093224;28;20097;-60
2022/08/30 04:06:41;;;;;;;11.60;2.00;;;;;;;-144.43;100.00;67396.00;5092748;28;20041;-59
2022/08/30 04:09:07;;;;;;;12.30;1.80;;;;;;;-144.43;100.00;67396.00;5091761;28;20032;-60
2022/08/30 04:11:34;;;;;;;9.38;1.67;;;;;;;-144.43;100.00;67396.00;5091875;28;20539;-61
2022/08/30 04:14:02;;;;;;;11.68;2.10;;;;;;;-144.43;100.00;67396.00;5091887;28;20028;-59
2022/08/30 04:16:29;;;;;;;11.88;2.00;;;;;;;-144.43;100.00;67396.00;5092315;28;20405;-60
2022/08/30 04:18:56;;;;;;;7.38;1.88;;;;;;;-144.43;100.00;67396.00;5092560;28;20012;-58
2022/08/30 04:21:23;;;;;;;5.55;1.75;;;;;;;-144.43;100.00;67396.00;5092368;28;20043;-59
2022/08/30 04:23:49;;;;;;;7.80;1.60;;;;;;;-144.43;100.00;67396.00;5092539;28;20028;-58
2022/08/30 04:26:16;;;;;;;26.02;2.50;;;;;;;-144.43;100.00;67396.00;5092054;28;20382;-60
2022/08/30 04:28:43;;;;;;;11.15;2.25;;;;;;;-144.43;100.00;67396.00;5092885;28;20024;-59
2022/08/30 04:31:12;;;;;;;12.77;2.50;;;;;;;-144.43;100.00;67396.00;5092049;28;20402;-59
2022/08/30 04:33:40;;;;;;;10.98;2.25;;;;;;;-144.43;100.00;67396.00;5092294;28;20103;-57
2022/08/30 04:36:08;;;;;;;8.52;2.20;;;;;;;-144.43;100.00;67396.00;5093118;28;20050;-57
2022/08/30 04:38:36;;;;;;;8.82;2.10;;;;;;;-144.43;100.00;67396.00;5092195;28;20055;-60
2022/08/30 04:41:13;;;;;;;7.60;2.55;;;;;;;-144.43;100.00;67396.00;5091514;28;20548;-57
2022/08/30 04:43:40;;;;;;;9.05;2.47;;;;;;;-144.43;100.00;67396.00;5091669;28;20038;-59
2022/08/30 04:46:08;;;;;;;9.63;2.53;;;;;;;-144.43;100.00;67396.00;5091727;28;20054;-57
2022/08/30 04:48:37;;;;;;;10.95;2.45;;;;;;;-144.43;100.00;67396.00;5091594;28;20050;-62
2022/08/30 04:51:06;;;;;;;8.95;2.20;;;;;;;-144.43;100.00;67396.00;5091486;28;20062;-58
2022/08/30 04:53:33;;;;;;;10.75;2.20;;;;;;;-144.43;100.00;67396.00;5091834;28;20119;-58
2022/08/30 04:56:00;;;;;;;12.90;2.33;;;;;;;-144.43;100.00;67396.00;5091737;28;20077;-58
2022/08/30 04:58:27;;;;;;;22.02;3.55;;;;;;;-144.43;100.00;67396.00;5071554;28;20040;-58
2022/08/30 05:00:54;;;;;;;10.27;3.78;;;;;;;-144.43;100.00;67396.00;5081112;28;20434;-60
2022/08/30 05:03:21;;;;;;;18.35;5.00;;;;;;;-144.43;100.00;67396.00;5081047;28;20040;-60
2022/08/30 05:05:49;;;;;;;17.70;4.47;;;;;;;-144.43;100.00;67396.00;5081156;28;20036;-59
2022/08/30 05:08:19;;;;;;;17.83;4.70;;;;;;;-144.43;100.00;67396.00;5090716;28;20092;-58
2022/08/30 05:10:51;;;;;;;15.27;4.68;;;;;;;-144.43;100.00;67396.00;5084327;28;20054;-59
2022/08/30 05:13:19;;;;;;;13.43;4.40;;;;;;;-144.43;100.00;67396.00;5087758;28;20079;-61
2022/08/30 05:15:46;;;;;;;14.63;4.40;;;;;;;-144.43;100.00;67396.00;5081743;28;20421;-62
2022/08/30 05:18:14;;;;;;;10.85;3.70;;;;;;;-144.43;100.00;67396.00;5083743;28;20089;-61
2022/08/30 05:20:42;;;;;;;9.10;3.50;;;;;;;-144.43;100.00;67396.00;5084774;28;20073;-59
2022/08/30 05:23:10;;;;;;;8.20;3.10;;;;;;;-144.43;100.00;67396.00;5087841;28;20051;-63
2022/08/30 05:25:39;;;;;;;8.57;2.78;;;;;;;-144.43;100.00;67396.00;5085205;28;20063;-60
2022/08/30 05:28:06;;;;;;;51.20;5.10;;;;;;;-144.43;100.00;67396.00;5080928;28;20023;-62
2022/08/30 05:30:35;;;;;;;11.80;3.15;;;;;;;-144.43;100.00;67396.00;5082767;28;20070;-64
2022/08/30 05:33:02;;;;;;;11.60;3.50;;;;;;;-144.43;100.00;67396.00;5079340;28;20043;-60
2022/08/30 05:35:29;;;;;;;19.02;3.97;;;;;;;-144.43;100.00;67396.00;5079085;28;20565;-62
2022/08/30 05:37:56;;;;;;;7.32;2.92;;;;;;;-144.43;100.00;67396.00;5083436;28;20051;-61
2022/08/30 05:40:23;;;;;;;11.38;3.50;;;;;;;-144.43;100.00;67396.00;5087344;28;20040;-60
2022/08/30 05:42:50;;;;;;;13.93;2.95;;;;;;;-144.43;100.00;67396.00;5085651;28;20569;-61
2022/08/30 05:45:17;;;;;;;17.10;3.90;;;;;;;-144.43;100.00;67396.00;5093631;28;20098;-61
2022/08/30 05:47:46;;;;;;;10.45;3.55;;;;;;;-144.43;100.00;67396.00;5079461;28;20029;-61
2022/08/30 05:50:13;;;;;;;9.23;3.13;;;;;;;-144.43;100.00;67396.00;5082803;28;20037;-59
2022/08/30 05:52:43;;;;;;;15.40;3.78;;;;;;;-144.43;100.00;67396.00;5084418;28;20044;-61
2022/08/30 05:55:11;;;;;;;11.77;3.20;;;;;;;-144.43;100.00;67396.00;5081096;28;20028;-60
2022/08/30 05:57:39;;;;;;;13.02;3.25;;;;;;;-144.43;100.00;67396.00;5088140;28;20106;-59
2022/08/30 06:00:17;;;;;;;9.52;2.80;;;;;;;-144.43;100.00;67396.00;5089157;28;20097;-62
2022/08/30 06:02:44;;;;;;;13.13;3.58;;;;;;;-144.43;100.00;67396.00;5085448;28;20500;-64
2022/08/30 06:05:12;;;;;;;9.65;3.20;;;;;;;-144.43;100.00;67396.00;5086819;28;20052;-61
2022/08/30 06:07:39;;;;;;;13.02;3.40;;;;;;;-144.43;100.00;67396.00;5092309;28;20036;-61
2022/08/30 06:10:06;;;;;;;14.18;3.33;;;;;;;-144.43;100.00;67396.00;5088140;28;20138;-60
2022/08/30 06:12:33;;;;;;;10.13;2.90;;;;;;;-144.43;100.00;67396.00;5088253;28;20036;-60
2022/08/30 06:15:02;;;;;;;9.65;2.92;;;;;;;-144.43;100.00;67396.00;5091427;28;20032;-59
2022/08/30 06:17:29;;;;;;;7.35;2.70;;;;;;;-144.43;100.00;67396.00;5085725;28;20037;-63
2022/08/30 06:19:56;;;;;;;9.82;2.60;;;;;;;-144.43;100.00;67396.00;5086323;28;20039;-62
2022/08/30 06:22:23;;;;;;;10.02;2.85;;;;;;;-144.43;100.00;67396.00;5090643;28;20028;-62
2022/08/30 06:24:49;;;;;;;9.13;2.70;;;;;;;-144.43;100.00;67396.00;5093463;28;20020;-61
2022/08/30 06:27:16;;;;;;;10.35;2.30;;;;;;;-144.43;100.00;67396.00;5087266;28;20398;-61
2022/08/30 06:29:43;;;;;;;7.00;2.60;;;;;;;-144.43;100.00;67396.00;5092113;28;20020;-60
2022/08/30 06:32:10;;;;;;;7.18;2.08;;;;;;;-144.43;100.00;67396.00;5090447;28;20035;-59
2022/08/30 06:34:37;;;;;;;7.18;2.00;;;;;;;-144.43;100.00;67396.00;5087074;28;20024;-61
2022/08/30 06:37:04;;;;;;;5.55;1.90;;;;;;;-144.43;100.00;67396.00;5086122;28;20162;-61
2022/08/30 06:39:31;;;;;;;10.23;1.77;;;;;;;-144.43;100.00;67396.00;5089804;28;20043;-61
2022/08/30 06:41:57;;;;;;;5.38;1.67;;;;;;;-144.43;100.00;67396.00;5087991;28;20469;-61
2022/08/30 06:44:27;;;;;;;6.05;1.80;;;;;;;-144.43;100.00;67396.00;5090646;28;20028;-60
2022/08/30 06:46:53;;;;;;;5.32;1.70;;;;;;;-144.43;100.00;67396.00;5086670;28;20036;-62
2022/08/30 06:49:20;;;;;;;7.07;1.73;;;;;;;-144.43;100.00;67396.00;5086498;28;20121;-61
2022/08/30 06:51:47;;;;;;;4.60;1.75;;;;;;;-144.43;100.00;67396.00;5082296;28;20123;-61
2022/08/30 06:54:14;;;;;;;7.15;1.70;;;;;;;-144.43;100.00;67396.00;5088358;28;20066;-60
2022/08/30 06:56:42;;;;;;;7.50;1.83;;;;;;;-144.43;100.00;67396.00;5079452;28;20055;-59
2022/08/30 06:59:09;;;;;;;7.05;1.70;;;;;;;-144.43;100.00;67396.00;5095832;28;20475;-61
2022/08/30 07:01:36;;;;;;;6.68;1.80;;;;;;;-144.43;100.00;67396.00;5094531;28;20055;-62
2022/08/30 07:04:03;;;;;;;8.10;2.00;;;;;;;-144.43;100.00;67396.00;5094842;28;20482;-61
2022/08/30 07:06:31;;;;;;;6.72;1.60;;;;;;;-144.43;100.00;67396.00;5094092;28;20047;-60
2022/08/30 07:08:58;;;;;;;7.70;1.77;;;;;;;-144.43;100.00;67396.00;5094527;28;20029;-59
2022/08/30 07:11:34;;;;;;;8.23;1.90;;;;;;;-144.43;100.00;67396.00;5094607;28;20028;-61
2022/08/30 07:14:02;;;;;;;9.55;1.90;;;;;;;-144.43;100.00;67396.00;5092695;28;20028;-61
2022/08/30 07:16:30;;;;;;;7.20;2.05;;;;;;;-144.43;100.00;67396.00;5094108;28;20073;-63
2022/08/30 07:18:58;;;;;;;9.68;2.30;;;;;;;-144.43;100.00;67396.00;5094570;28;20440;-61
2022/08/30 07:21:37;;;;;;;5.05;1.58;;;;;;;-144.43;100.00;67396.00;5094428;28;20471;-60
2022/08/30 07:24:06;;;;;;;8.38;1.83;;;;;;;-144.43;100.00;67396.00;5093180;28;20539;-60
2022/08/30 07:26:42;;;;;;;5.32;1.80;;;;;;;-144.43;100.00;67396.00;5093836;28;20434;-62
2022/08/30 07:29:09;;;;;;;6.75;2.00;;;;;;;-144.43;100.00;67396.00;5094265;28;20505;-59
2022/08/30 07:31:36;;;;;;;8.18;1.88;;;;;;;-144.43;100.00;67396.00;5095682;28;20428;-62
2022/08/30 07:34:05;;;;;;;6.80;2.00;;;;;;;-144.43;100.00;67396.00;5094230;28;20055;-60
2022/08/30 07:36:33;;;;;;;5.70;1.65;;;;;;;-144.43;100.00;67396.00;5094371;28;20034;-62
2022/08/30 07:39:00;;;;;;;5.50;1.90;;;;;;;-144.43;100.00;67396.00;5094534;28;20506;-61
2022/08/30 07:41:31;;;;;;;7.55;2.00;;;;;;;-144.43;100.00;67396.00;5094480;28;20114;-60
2022/08/30 07:43:59;;;;;;;9.70;1.92;;;;;;;-144.43;100.00;67396.00;5094499;28;20062;-61
2022/08/30 07:46:26;;;;;;;8.05;2.22;;;;;;;-144.43;100.00;67396.00;5094053;28;20020;-61
2022/08/30 07:48:54;;;;;;;11.38;2.20;;;;;;;-144.43;100.00;67396.00;5094659;28;20043;-60
2022/08/30 07:51:23;;;;;;;12.73;2.13;;;;;;;-144.43;100.00;67396.00;5094458;28;20436;-59
2022/08/30 07:53:51;;;;;;;10.90;2.10;;;;;;;-144.43;100.00;67396.00;5094258;28;20036;-61
2022/08/30 07:56:18;;;;;;;12.65;2.78;;;;;;;-144.43;100.00;67396.00;5093871;28;20355;-61
2022/08/30 07:58:45;;;;;;;14.23;3.28;;;;;;;-144.43;100.00;67396.00;5094172;28;20036;-61
2022/08/30 08:01:13;;;;;;;8.02;2.90;;;;;;;-144.43;100.00;67396.00;5093882;28;20036;-61
2022/08/30 08:03:41;;;;;;;12.32;3.22;;;;;;;-144.43;100.00;67396.00;5094044;28;20107;-61
2022/08/30 08:06:10;;;;;;;10.88;3.90;;;;;;;-144.43;100.00;67396.00;5093718;28;20036;-58
2022/08/30 08:08:38;;;;;;;15.68;3.90;;;;;;;-144.43;100.00;67396.00;5093876;28;20882;-59
2022/08/30 08:11:13;;;;;;;11.68;4.57;;;;;;;-144.43;100.00;67396.00;5093889;28;20499;-59
2022/08/30 08:13:40;;;;;;;;;;;;;;;-144.43;100.00;67396.00;5094301;28;20073;-59
2022/08/30 08:16:07;;;;;;;12.30;4.32;;;;;;;-144.43;100.00;67396.00;5093804;28;19912;-59
2022/08/30 08:18:34;;;;;;;13.95;4.22;;;;;;;-144.43;100.00;67396.00;5093575;28;20032;-60
2022/08/30 08:21:01;;;;;;;13.77;4.05;;;;;;;-144.43;100.00;67396.00;5093612;28;20040;-59
2022/08/30 08:23:29;;;;;;;10.20;3.72;;;;;;;-144.43;100.00;67396.00;5093633;28;20032;-60
2022/08/30 08:25:56;;;;;;;16.88;3.58;;;;;;;-144.43;100.00;67396.00;5093597;28;20107;-61
2022/08/30 08:28:23;;;;;;;17.20;4.20;;;;;;;-144.43;100.00;67396.00;5093096;28;20090;-59
2022/08/30 08:30:50;;;;;;;11.00;3.70;;;;;;;-144.43;100.00;67396.00;5093320;28;20020;-60
2022/08/30 08:33:18;;;;;;;13.10;3.38;;;;;;;-144.43;100.00;67396.00;5093466;28;20033;-61
2022/08/30 08:35:45;;;;;;;17.77;4.10;;;;;;;-144.43;100.00;67396.00;5093168;28;20114;-61
2022/08/30 08:38:12;;;;;;;14.27;4.05;;;;;;;-144.43;100.00;67396.00;5093324;28;20111;-61
2022/08/30 08:41:03;;;;;;;13.25;3.47;;;;;;;-144.43;100.00;67396.00;5093078;28;20127;-59
2022/08/30 08:43:36;;;;;;;17.90;3.65;;;;;;;-144.43;100.00;67396.00;5093642;28;20379;-59
2022/08/30 08:46:22;;;;;;;10.50;3.67;;;;;;;-144.43;100.00;67396.00;5093169;28;20493;-62
2022/08/30 08:48:53;;;;;;;12.40;3.42;;;;;;;-144.43;100.00;67396.00;5093271;28;20467;-61
2022/08/30 08:54:36;;;;;;;12.93;3.58;;;;;;;-144.43;100.00;67396.00;5093438;28;20494;-61
2022/08/30 08:57:02;;;;;;;19.45;3.92;;;;;;;-144.43;100.00;67396.00;5092592;28;20032;-61
2022/08/30 08:59:29;;;;;;;13.10;3.45;;;;;;;-144.43;100.00;67396.00;5092928;28;20016;-60
2022/08/30 09:02:07;;;;;;;11.82;3.20;;;;;;;-144.43;100.00;67396.00;5093228;28;20105;-61
2022/08/30 09:04:37;;;;;;;23.05;3.70;;;;;;;-144.43;100.00;67396.00;5092853;28;20090;-60
2022/08/30 09:07:20;;;;;;;18.90;4.15;;;;;;;-144.43;100.00;67396.00;5092897;28;20043;-59
2022/08/30 09:09:48;;;;;;;16.98;4.07;;;;;;;-144.43;100.00;67396.00;5092977;28;20114;-59
2022/08/30 09:12:14;;;;;;;19.90;4.00;;;;;;;-144.43;100.00;67396.00;5092083;28;20036;-61
2022/08/30 09:14:50;;;;;;;12.80;4.05;;;;;;;-144.43;100.00;67396.00;5092789;28;20032;-63
2022/08/30 09:17:18;;;;;;;15.35;3.40;;;;;;;-144.43;100.00;67396.00;5092858;28;20028;-60
2022/08/30 09:19:51;;;;;;;18.10;3.80;;;;;;;-144.43;100.00;67396.00;5092788;28;20020;-60
2022/08/30 09:22:25;;;;;;;17.58;4.03;;;;;;;-144.43;100.00;67396.00;5092079;28;20039;-59
2022/08/30 09:24:59;;;;;;;14.13;4.10;;;;;;;-144.43;100.00;67396.00;5092659;28;20040;-60
2022/08/30 09:27:29;;;;;;;;;;;;;;;-144.43;100.00;67396.00;5092728;28;20043;-61
2022/08/30 09:30:15;;;;;;;18.38;4.90;;;;;;;-144.43;100.00;67396.00;5091872;28;19916;-59
2022/08/30 09:32:51;;;;;;;19.23;4.85;;;;;;;-144.43;100.00;67396.00;5092503;28;20517;-61
2022/08/30 09:35:25;;;;;;;19.30;4.47;;;;;;;-144.43;100.00;67396.00;5092690;28;20107;-60
2022/08/30 09:38:03;;;;;;;22.88;5.50;;;;;;;-144.43;100.00;67396.00;5092740;28;20114;-60
2022/08/30 09:40:45;;;;;;;30.00;4.68;;;;;;;-144.43;100.00;67396.00;5092462;28;20100;-59
2022/08/30 09:43:24;;;;;;;16.88;4.45;;;;;;;-144.43;100.00;67396.00;5089465;28;20028;-59
2022/08/30 09:45:59;;;;;;;17.40;3.70;;;;;;;-144.43;100.00;67396.00;5090828;28;20411;-61
2022/08/30 09:48:31;;;;;;;13.63;3.92;;;;;;;-144.43;100.00;67396.00;5090416;28;20032;-60
2022/08/30 09:51:10;;;;;;;23.73;4.10;;;;;;;-144.43;100.00;67396.00;5090650;28;20036;-59
2022/08/30 09:54:06;;;;;;;20.77;4.35;;;;;;;-144.43;100.00;67396.00;5090300;28;20551;-59
2022/08/30 09:56:59;;;;;;;25.33;5.00;;;;;;;-144.43;100.00;67396.00;5090094;28;20051;-59
2022/08/30 09:59:44;;;;;;;21.67;4.43;;;;;;;-144.43;100.00;67396.00;5092422;28;20039;-60
2022/08/30 10:02:20;;;;;;;22.23;4.72;;;;;;;-144.43;100.00;67396.00;5092502;28;20390;-60
2022/08/30 10:05:08;;;;;;;21.75;4.50;;;;;;;-144.43;100.00;67396.00;5092403;28;20039;-60
2022/08/30 10:07:49;;;;;;;23.92;4.40;;;;;;;-144.43;100.00;67396.00;5092295;28;20577;-59
2022/08/30 10:10:51;;;;;;;15.95;3.88;;;;;;;-144.43;100.00;67396.00;5092357;28;20032;-60
2022/08/30 10:13:36;;;;;;;14.77;4.28;;;;;;;-144.43;100.00;67396.00;5092293;28;20067;-60
2022/08/30 10:16:34;;;;;;;21.00;4.30;;;;;;;-144.43;100.00;67396.00;5092278;28;20039;-60
2022/08/30 10:19:28;;;;;;;17.45;4.10;;;;;;;-144.43;100.00;67396.00;5092381;28;20064;-59
2022/08/30 10:22:02;;;;;;;18.85;3.90;;;;;;;-144.43;100.00;67396.00;5082891;28;20051;-59
2022/08/30 10:24:47;;;;;;;22.80;4.10;;;;;;;-144.43;100.00;67396.00;5095708;28;20134;-60
2022/08/30 10:27:22;;;;;;;17.63;3.20;;;;;;;-144.43;100.00;67396.00;5095491;28;20032;-62
2022/08/30 10:30:01;;;;;;;13.07;2.85;;;;;;;-144.43;100.00;67396.00;5095425;28;20524;-60
2022/08/30 10:32:43;;;;;;;17.23;3.00;;;;;;;-144.43;100.00;67396.00;5094320;28;20028;-60
2022/08/30 10:35:23;;;;;;;15.25;2.90;;;;;;;-144.43;100.00;67396.00;5095519;28;20131;-60
2022/08/30 10:37:57;;;;;;;10.45;2.70;;;;;;;-144.43;100.00;67396.00;5095686;28;20040;-62
2022/08/30 10:43:37;;;;;;;10.57;2.50;;;;;;;-144.43;100.00;67396.00;5095579;28;20032;-60
2022/08/30 10:46:13;;;;;;;7.53;2.55;;;;;;;-144.43;100.00;67396.00;5095722;28;20036;-60
2022/08/30 10:48:44;;;;;;;12.25;2.55;;;;;;;-144.43;100.00;67396.00;5095607;28;20028;-61
2022/08/30 10:51:30;;;;;;;11.57;2.30;;;;;;;-144.43;100.00;67396.00;5094998;28;20403;-59
2022/08/30 10:54:07;;;;;;;9.25;2.47;;;;;;;-144.43;100.00;67396.00;5095395;28;20028;-61
2022/08/30 10:56:37;;;;;;;8.38;3.40;;;;;;;-144.43;100.00;67396.00;5095288;28;20036;-59
2022/08/30 10:59:05;;;;;;;16.98;4.00;;;;;;;-144.43;100.00;67396.00;5095235;28;20064;-60
2022/08/30 11:01:57;;;;;;;15.13;3.90;;;;;;;-144.43;100.00;67396.00;5094869;28;20501;-60
2022/08/30 11:05:01;;;;;;;13.65;4.25;;;;;;;-144.43;100.00;67396.00;5089648;28;20054;-58
2022/08/30 11:07:37;;;;;;;12.13;3.58;;;;;;;-144.43;100.00;67396.00;5095138;28;20506;-60
2022/08/30 11:10:30;;;;;;;14.82;3.63;;;;;;;-144.43;100.00;67396.00;5095202;28;20095;-60
2022/08/30 11:13:03;;;;;;;13.77;3.35;;;;;;;-144.43;100.00;67396.00;5095098;28;20036;-60
2022/08/30 11:15:36;;;;;;;13.15;2.92;;;;;;;-144.43;100.00;67396.00;5094973;28;20043;-60
2022/08/30 11:18:09;;;;;;;17.15;3.28;;;;;;;-144.43;100.00;67396.00;5094896;28;20032;-60
2022/08/30 11:20:38;;;;;;;13.27;3.17;;;;;;;-144.43;100.00;67396.00;5095080;28;20035;-60
2022/08/30 11:23:11;;;;;;;10.43;3.15;;;;;;;-144.43;100.00;67396.00;5094369;28;20385;-62
2022/08/30 11:25:55;;;;;;;8.77;2.72;;;;;;;-144.43;100.00;67396.00;5094842;28;20443;-61